createdAt,value
2016-06-03T00:00:19.529Z,0
2016-06-03T00:01:19.499Z,0
2016-06-03T00:02:19.487Z,0
2016-06-03T00:03:19.459Z,0
2016-06-03T00:04:19.445Z,0
2016-06-03T00:05:19.416Z,0
2016-06-03T00:06:19.403Z,0
2016-06-03T00:07:19.390Z,0
2016-06-03T00:08:19.362Z,0
2016-06-03T00:09:19.349Z,0
2016-06-03T00:10:19.180Z,0
2016-06-03T00:11:19.322Z,0
2016-06-03T00:12:19.311Z,0
2016-06-03T00:13:19.281Z,0
2016-06-03T00:14:19.253Z,0
2016-06-03T00:15:19.256Z,0
2016-06-03T00:16:19.227Z,0
2016-06-03T00:17:19.199Z,0
2016-06-03T00:18:19.186Z,0
2016-06-03T00:19:19.173Z,0
2016-06-03T00:20:18.989Z,0
2016-06-03T00:21:19.131Z,0
2016-06-03T00:22:19.103Z,0
2016-06-03T00:23:19.090Z,0
2016-06-03T00:24:19.077Z,0
2016-06-03T00:25:18.751Z,0
2016-06-03T00:26:19.035Z,0
2016-06-03T00:27:18.866Z,0
2016-06-03T00:28:19.103Z,0
2016-06-03T00:29:18.982Z,0
2016-06-03T00:30:18.968Z,0
2016-06-03T00:31:18.954Z,0
2016-06-03T00:32:18.943Z,0
2016-06-03T00:33:18.914Z,0
2016-06-03T00:34:18.885Z,0
2016-06-03T00:35:18.872Z,0
2016-06-03T00:36:18.859Z,0
2016-06-03T00:37:18.675Z,0
2016-06-03T00:38:18.817Z,0
2016-06-03T00:39:18.789Z,0
2016-06-03T00:40:18.792Z,0
2016-06-03T00:41:18.764Z,0
2016-06-03T00:42:18.735Z,0
2016-06-03T00:43:18.722Z,0
2016-06-03T00:44:18.552Z,0
2016-06-03T00:45:18.680Z,0
2016-06-03T00:46:18.667Z,0
2016-06-03T00:47:18.638Z,0
2016-06-03T00:48:18.642Z,0
2016-06-03T00:49:18.613Z,0
2016-06-03T00:50:18.585Z,0
2016-06-03T00:51:18.571Z,0
2016-06-03T00:52:18.558Z,0
2016-06-03T00:53:18.561Z,0
2016-06-03T00:54:18.516Z,0
2016-06-03T00:55:19.035Z,0
2016-06-03T00:56:18.491Z,0
2016-06-03T00:57:18.463Z,0
2016-06-03T00:58:18.435Z,0
2016-06-03T00:59:18.421Z,0
2016-06-03T01:00:18.407Z,0
2016-06-03T01:01:18.395Z,0
2016-06-03T01:02:18.382Z,0
2016-06-03T01:03:18.354Z,0
2016-06-03T01:04:18.340Z,0
2016-06-03T01:05:18.312Z,0
2016-06-03T01:06:18.315Z,0
2016-06-03T01:07:18.271Z,0
2016-06-03T01:08:18.259Z,0
2016-06-03T01:09:18.261Z,0
2016-06-03T01:10:18.232Z,0
2016-06-03T01:11:18.203Z,0
2016-06-03T01:12:18.190Z,0
2016-06-03T01:13:18.161Z,0
2016-06-03T01:14:18.149Z,0
2016-06-03T01:15:18.136Z,0
2016-06-03T01:16:18.108Z,0
2016-06-03T01:17:18.094Z,0
2016-06-03T01:18:18.081Z,0
2016-06-03T01:19:17.897Z,0
2016-06-03T01:20:18.040Z,0
2016-06-03T01:21:18.027Z,0
2016-06-03T01:22:17.999Z,0
2016-06-03T01:23:17.986Z,0
2016-06-03T01:24:17.957Z,0
2016-06-03T01:25:18.897Z,0
2016-06-03T01:26:17.916Z,0
2016-06-03T01:27:17.902Z,0
2016-06-03T01:28:17.890Z,0
2016-06-03T01:29:17.860Z,0
2016-06-03T01:30:17.848Z,0
2016-06-03T01:31:17.835Z,0
2016-06-03T01:32:17.823Z,0
2016-06-03T01:33:17.793Z,0
2016-06-03T01:34:17.781Z,0
2016-06-03T01:35:17.768Z,0
2016-06-03T01:36:17.754Z,0
2016-06-03T01:37:17.742Z,0
2016-06-03T01:38:17.698Z,0
2016-06-03T01:39:17.684Z,0
2016-06-03T01:40:18.298Z,0
2016-06-03T01:41:17.659Z,0
2016-06-03T01:42:17.630Z,0
2016-06-03T01:43:17.617Z,0
2016-06-03T01:44:17.605Z,0
2016-06-03T01:45:17.576Z,0
2016-06-03T01:46:17.563Z,0
2016-06-03T01:47:17.550Z,0
2016-06-03T01:48:17.537Z,0
2016-06-03T01:49:17.508Z,0
2016-06-03T01:50:17.480Z,0
2016-06-03T01:51:17.467Z,0
2016-06-03T01:52:17.455Z,0
2016-06-03T01:53:17.426Z,0
2016-06-03T01:54:17.412Z,0
2016-06-03T01:55:17.087Z,0
2016-06-03T01:56:17.371Z,0
2016-06-03T01:57:17.358Z,0
2016-06-03T01:58:17.360Z,0
2016-06-03T01:59:17.004Z,0
2016-06-03T02:00:17.304Z,0
2016-06-03T02:01:17.291Z,0
2016-06-03T02:02:17.262Z,0
2016-06-03T02:03:17.235Z,0
2016-06-03T02:04:17.221Z,0
2016-06-03T02:05:17.207Z,0
2016-06-03T02:06:17.195Z,0
2016-06-03T02:07:17.167Z,0
2016-06-03T02:08:17.153Z,0
2016-06-03T02:09:17.141Z,0
2016-06-03T02:10:17.518Z,0
2016-06-03T02:11:17.099Z,0
2016-06-03T02:12:17.070Z,0
2016-06-03T02:13:17.058Z,0
2016-06-03T02:14:17.045Z,0
2016-06-03T02:15:17.017Z,0
2016-06-03T02:16:16.847Z,0
2016-06-03T02:17:16.990Z,0
2016-06-03T02:18:16.961Z,0
2016-06-03T02:19:16.949Z,0
2016-06-03T02:20:16.936Z,0
2016-06-03T02:21:16.922Z,0
2016-06-03T02:22:16.894Z,0
2016-06-03T02:23:16.881Z,0
2016-06-03T02:24:16.852Z,0
2016-06-03T02:25:16.855Z,0
2016-06-03T02:26:16.827Z,0
2016-06-03T02:27:16.798Z,0
2016-06-03T02:28:16.785Z,0
2016-06-03T02:29:16.757Z,0
2016-06-03T02:30:16.744Z,0
2016-06-03T02:31:16.732Z,0
2016-06-03T02:32:16.702Z,0
2016-06-03T02:33:16.690Z,0
2016-06-03T02:34:16.677Z,0
2016-06-03T02:35:16.508Z,0
2016-06-03T02:36:16.651Z,0
2016-06-03T02:37:16.623Z,4
2016-06-03T02:38:16.609Z,4
2016-06-03T02:39:16.596Z,4
2016-06-03T02:40:16.412Z,4
2016-06-03T02:41:16.554Z,4
2016-06-03T02:42:16.542Z,4
2016-06-03T02:43:16.514Z,4
2016-06-03T02:44:16.484Z,0
2016-06-03T02:45:16.472Z,4
2016-06-03T02:46:16.459Z,4
2016-06-03T02:47:16.431Z,8
2016-06-03T02:48:16.417Z,8
2016-06-03T02:49:16.404Z,4
2016-06-03T02:50:16.375Z,4
2016-06-03T02:51:16.363Z,4
2016-06-03T02:52:16.350Z,8
2016-06-03T02:53:16.321Z,8
2016-06-03T02:54:16.308Z,12
2016-06-03T02:55:16.952Z,8
2016-06-03T02:56:16.267Z,8
2016-06-03T02:57:16.254Z,12
2016-06-03T02:58:16.225Z,12
2016-06-03T02:59:16.213Z,12
2016-06-03T03:00:16.200Z,16
2016-06-03T03:01:16.171Z,20
2016-06-03T03:02:16.158Z,20
2016-06-03T03:03:16.145Z,20
2016-06-03T03:04:16.132Z,24
2016-06-03T03:05:15.948Z,28
2016-06-03T03:06:15.934Z,32
2016-06-03T03:07:16.063Z,32
2016-06-03T03:08:16.049Z,36
2016-06-03T03:09:16.036Z,36
2016-06-03T03:10:17.304Z,40
2016-06-03T03:11:15.995Z,48
2016-06-03T03:12:15.982Z,60
2016-06-03T03:13:15.813Z,68
2016-06-03T03:14:15.940Z,76
2016-06-03T03:15:15.928Z,84
2016-06-03T03:16:15.914Z,96
2016-06-03T03:17:15.886Z,104
2016-06-03T03:18:15.873Z,116
2016-06-03T03:19:15.860Z,128
2016-06-03T03:20:15.847Z,140
2016-06-03T03:21:15.818Z,164
2016-06-03T03:22:15.806Z,188
2016-06-03T03:23:15.793Z,204
2016-06-03T03:24:15.764Z,208
2016-06-03T03:25:16.345Z,204
2016-06-03T03:26:15.723Z,200
2016-06-03T03:27:15.710Z,200
2016-06-03T03:28:15.680Z,208
2016-06-03T03:29:15.668Z,208
2016-06-03T03:30:15.640Z,220
2016-06-03T03:31:15.626Z,244
2016-06-03T03:32:15.614Z,276
2016-06-03T03:33:15.601Z,292
2016-06-03T03:34:15.572Z,312
2016-06-03T03:35:15.559Z,324
2016-06-03T03:36:15.547Z,336
2016-06-03T03:37:15.517Z,348
2016-06-03T03:38:15.520Z,356
2016-06-03T03:39:15.492Z,360
2016-06-03T03:40:15.338Z,380
2016-06-03T03:41:15.451Z,412
2016-06-03T03:42:15.437Z,452
2016-06-03T03:43:15.409Z,484
2016-06-03T03:44:15.395Z,496
2016-06-03T03:45:15.384Z,488
2016-06-03T03:46:15.354Z,480
2016-06-03T03:47:15.342Z,468
2016-06-03T03:48:15.313Z,460
2016-06-03T03:49:15.300Z,468
2016-06-03T03:50:15.287Z,504
2016-06-03T03:51:15.259Z,560
2016-06-03T03:52:15.246Z,592
2016-06-03T03:53:15.233Z,632
2016-06-03T03:54:15.205Z,652
2016-06-03T03:55:15.207Z,648
2016-06-03T03:56:15.178Z,648
2016-06-03T03:57:15.165Z,660
2016-06-03T03:58:15.137Z,688
2016-06-03T03:59:15.124Z,744
2016-06-03T04:00:15.127Z,828
2016-06-03T04:01:15.083Z,912
2016-06-03T04:02:15.070Z,996
2016-06-03T04:03:15.041Z,1052
2016-06-03T04:04:15.027Z,1080
2016-06-03T04:05:15.015Z,1064
2016-06-03T04:06:15.002Z,1012
2016-06-03T04:07:15.004Z,996
2016-06-03T04:08:14.961Z,980
2016-06-03T04:09:14.948Z,988
2016-06-03T04:10:15.090Z,1008
2016-06-03T04:11:14.906Z,1040
2016-06-03T04:12:14.878Z,1080
2016-06-03T04:13:14.865Z,1120
2016-06-03T04:14:14.852Z,1156
2016-06-03T04:15:14.839Z,1244
2016-06-03T04:16:14.809Z,1348
2016-06-03T04:17:14.797Z,1452
2016-06-03T04:18:14.784Z,1612
2016-06-03T04:19:14.772Z,1752
2016-06-03T04:20:14.743Z,1844
2016-06-03T04:21:14.714Z,1924
2016-06-03T04:22:14.701Z,1940
2016-06-03T04:23:14.689Z,1988
2016-06-03T04:24:14.661Z,2108
2016-06-03T04:25:14.944Z,2208
2016-06-03T04:26:14.634Z,2220
2016-06-03T04:27:14.605Z,2268
2016-06-03T04:28:14.639Z,2316
2016-06-03T04:29:14.580Z,2368
2016-06-03T04:30:14.583Z,2468
2016-06-03T04:31:14.538Z,2604
2016-06-03T04:32:14.525Z,2692
2016-06-03T04:33:14.513Z,2812
2016-06-03T04:34:14.484Z,3092
2016-06-03T04:35:14.471Z,3388
2016-06-03T04:36:14.443Z,3632
2016-06-03T04:37:14.429Z,3796
2016-06-03T04:38:14.416Z,3836
2016-06-03T04:39:14.403Z,3748
2016-06-03T04:40:14.235Z,3592
2016-06-03T04:41:14.362Z,3504
2016-06-03T04:42:14.349Z,3464
2016-06-03T04:43:14.336Z,3420
2016-06-03T04:44:14.307Z,3320
2016-06-03T04:45:14.295Z,3192
2016-06-03T04:46:14.265Z,3124
2016-06-03T04:47:14.254Z,3096
2016-06-03T04:48:14.240Z,3080
2016-06-03T04:49:14.211Z,3012
2016-06-03T04:50:14.214Z,2952
2016-06-03T04:51:14.186Z,2952
2016-06-03T04:52:14.157Z,3000
2016-06-03T04:53:14.159Z,3092
2016-06-03T04:54:14.131Z,3228
2016-06-03T04:55:14.306Z,3392
2016-06-03T04:56:14.090Z,3572
2016-06-03T04:57:14.077Z,3764
2016-06-03T04:58:14.064Z,4108
2016-06-03T04:59:14.051Z,4388
2016-06-03T05:00:14.022Z,4564
2016-06-03T05:01:14.009Z,4704
2016-06-03T05:02:13.981Z,4768
2016-06-03T05:03:13.968Z,4840
2016-06-03T05:04:13.971Z,4860
2016-06-03T05:05:13.941Z,4820
2016-06-03T05:06:13.913Z,4696
2016-06-03T05:07:13.901Z,4500
2016-06-03T05:08:13.888Z,4300
2016-06-03T05:09:13.874Z,4076
2016-06-03T05:10:13.924Z,3856
2016-06-03T05:11:13.833Z,3716
2016-06-03T05:12:13.836Z,3732
2016-06-03T05:13:13.807Z,3800
2016-06-03T05:14:13.779Z,3896
2016-06-03T05:15:13.766Z,3992
2016-06-03T05:16:13.737Z,4064
2016-06-03T05:17:13.723Z,4244
2016-06-03T05:18:13.711Z,4448
2016-06-03T05:19:13.698Z,4724
2016-06-03T05:20:13.670Z,4948
2016-06-03T05:21:13.656Z,4920
2016-06-03T05:22:13.644Z,4776
2016-06-03T05:23:13.647Z,4588
2016-06-03T05:24:13.603Z,4384
2016-06-03T05:25:13.636Z,4248
2016-06-03T05:26:13.592Z,4088
2016-06-03T05:27:13.564Z,3868
2016-06-03T05:28:13.583Z,3616
2016-06-03T05:29:13.522Z,3352
2016-06-03T05:30:13.509Z,3224
2016-06-03T05:31:13.497Z,3456
2016-06-03T05:32:13.469Z,3840
2016-06-03T05:33:13.470Z,4064
2016-06-03T05:34:13.441Z,4080
2016-06-03T05:35:13.429Z,4084
2016-06-03T05:36:13.432Z,4020
2016-06-03T05:37:13.387Z,3880
2016-06-03T05:38:13.359Z,3716
2016-06-03T05:39:13.362Z,3696
2016-06-03T05:40:13.615Z,3752
2016-06-03T05:41:13.460Z,3920
2016-06-03T05:42:13.385Z,4280
2016-06-03T05:43:13.310Z,4388
2016-06-03T05:44:13.297Z,4172
2016-06-03T05:45:13.315Z,4000
2016-06-03T05:46:13.099Z,4188
2016-06-03T05:47:13.290Z,4380
2016-06-03T05:48:13.246Z,4376
2016-06-03T05:49:13.185Z,4208
2016-06-03T05:50:13.157Z,4092
2016-06-03T05:51:13.160Z,4120
2016-06-03T05:52:13.131Z,4424
2016-06-03T05:53:13.117Z,4832
2016-06-03T05:54:13.089Z,5168
2016-06-03T05:55:12.936Z,5324
2016-06-03T05:56:13.063Z,5536
2016-06-03T05:57:13.035Z,5756
2016-06-03T05:58:13.022Z,5976
2016-06-03T05:59:13.009Z,6252
2016-06-03T06:00:13.136Z,6472
2016-06-03T06:01:12.967Z,6736
2016-06-03T06:02:12.955Z,6904
2016-06-03T06:03:12.942Z,7072
2016-06-03T06:04:12.929Z,7256
2016-06-03T06:05:12.916Z,7280
2016-06-03T06:06:12.903Z,7140
2016-06-03T06:07:12.875Z,7012
2016-06-03T06:08:12.846Z,7196
2016-06-03T06:09:12.833Z,7160
2016-06-03T06:10:12.820Z,7168
2016-06-03T06:11:12.808Z,7292
2016-06-03T06:12:12.778Z,7324
2016-06-03T06:13:12.765Z,7428
2016-06-03T06:14:12.752Z,7488
2016-06-03T06:15:12.740Z,7796
2016-06-03T06:16:12.554Z,8060
2016-06-03T06:17:12.714Z,8320
2016-06-03T06:18:12.685Z,8716
2016-06-03T06:19:12.657Z,8948
2016-06-03T06:20:12.659Z,9328
2016-06-03T06:21:12.490Z,10112
2016-06-03T06:22:12.618Z,10804
2016-06-03T06:23:12.590Z,11268
2016-06-03T06:24:12.592Z,11660
2016-06-03T06:25:12.579Z,10876
2016-06-03T06:26:12.551Z,11180
2016-06-03T06:27:12.554Z,11420
2016-06-03T06:28:12.524Z,11044
2016-06-03T06:29:12.511Z,10600
2016-06-03T06:30:12.483Z,10580
2016-06-03T06:31:12.470Z,10776
2016-06-03T06:32:12.457Z,10944
2016-06-03T06:33:12.444Z,11100
2016-06-03T06:34:12.431Z,11308
2016-06-03T06:35:12.403Z,10216
2016-06-03T06:36:12.390Z,7324
2016-06-03T06:37:12.393Z,6116
2016-06-03T06:38:12.380Z,6812
2016-06-03T06:39:12.351Z,7692
2016-06-03T06:40:12.183Z,6904
2016-06-03T06:41:12.310Z,7636
2016-06-03T06:42:12.312Z,7916
2016-06-03T06:43:12.284Z,7424
2016-06-03T06:44:12.287Z,7216
2016-06-03T06:45:12.242Z,7368
2016-06-03T06:46:12.229Z,7352
2016-06-03T06:47:12.240Z,7368
2016-06-03T06:48:12.239Z,7248
2016-06-03T06:49:12.269Z,7420
2016-06-03T06:50:12.299Z,7624
2016-06-03T06:51:12.282Z,7212
2016-06-03T06:52:12.313Z,7344
2016-06-03T06:53:12.122Z,7744
2016-06-03T06:54:12.274Z,7916
2016-06-03T06:55:12.445Z,7780
2016-06-03T06:56:12.255Z,7592
2016-06-03T06:57:12.245Z,7556
2016-06-03T06:58:12.235Z,8016
2016-06-03T06:59:12.210Z,8072
2016-06-03T07:00:12.264Z,8860
2016-06-03T07:01:12.192Z,10016
2016-06-03T07:02:12.180Z,11640
2016-06-03T07:03:12.169Z,11260
2016-06-03T07:04:12.156Z,11128
2016-06-03T07:05:12.129Z,11516
2016-06-03T07:06:12.133Z,12204
2016-06-03T07:07:12.104Z,11660
2016-06-03T07:08:12.093Z,10592
2016-06-03T07:09:12.066Z,9948
2016-06-03T07:10:11.912Z,9920
2016-06-03T07:11:12.041Z,9820
2016-06-03T07:12:12.028Z,9544
2016-06-03T07:13:12.015Z,9180
2016-06-03T07:14:12.002Z,9568
2016-06-03T07:15:11.973Z,9556
2016-06-03T07:16:12.023Z,9600
2016-06-03T07:17:11.947Z,9672
2016-06-03T07:18:11.934Z,9364
2016-06-03T07:19:11.922Z,8804
2016-06-03T07:20:11.892Z,8612
2016-06-03T07:21:11.880Z,8488
2016-06-03T07:22:11.883Z,8108
2016-06-03T07:23:11.698Z,8396
2016-06-03T07:24:11.857Z,8480
2016-06-03T07:25:12.032Z,8768
2016-06-03T07:26:11.831Z,9348
2016-06-03T07:27:11.803Z,10644
2016-06-03T07:28:11.789Z,12360
2016-06-03T07:29:11.808Z,13568
2016-06-03T07:30:11.795Z,14192
2016-06-03T07:31:11.752Z,13844
2016-06-03T07:32:11.582Z,13360
2016-06-03T07:33:11.694Z,12600
2016-06-03T07:34:11.680Z,10628
2016-06-03T07:35:11.668Z,9480
2016-06-03T07:36:11.655Z,10000
2016-06-03T07:37:11.643Z,11576
2016-06-03T07:38:11.629Z,12060
2016-06-03T07:39:11.616Z,11860
2016-06-03T07:40:11.604Z,11508
2016-06-03T07:41:11.575Z,11588
2016-06-03T07:42:11.562Z,12100
2016-06-03T07:43:11.548Z,12504
2016-06-03T07:44:11.536Z,12672
2016-06-03T07:45:11.523Z,12624
2016-06-03T07:46:11.526Z,12600
2016-06-03T07:47:11.497Z,11716
2016-06-03T07:48:11.484Z,10156
2016-06-03T07:49:11.456Z,10656
2016-06-03T07:50:11.442Z,9780
2016-06-03T07:51:11.430Z,10208
2016-06-03T07:52:11.417Z,11116
2016-06-03T07:53:11.388Z,10928
2016-06-03T07:54:11.375Z,11484
2016-06-03T07:55:11.644Z,11192
2016-06-03T07:56:11.350Z,9964
2016-06-03T07:57:11.336Z,9800
2016-06-03T07:58:11.324Z,9892
2016-06-03T07:59:11.310Z,9268
2016-06-03T08:00:11.297Z,8600
2016-06-03T08:01:11.269Z,8296
2016-06-03T08:02:11.271Z,8488
2016-06-03T08:03:11.244Z,8612
2016-06-03T08:04:11.230Z,8844
2016-06-03T08:05:11.218Z,9304
2016-06-03T08:06:11.204Z,10024
2016-06-03T08:07:11.176Z,11080
2016-06-03T08:08:11.163Z,11728
2016-06-03T08:09:11.149Z,12204
2016-06-03T08:10:11.137Z,12440
2016-06-03T08:11:10.999Z,12200
2016-06-03T08:12:11.112Z,11976
2016-06-03T08:13:11.098Z,11868
2016-06-03T08:14:11.070Z,11860
2016-06-03T08:15:11.073Z,11848
2016-06-03T08:16:11.043Z,11868
2016-06-03T08:17:11.031Z,11984
2016-06-03T08:18:11.018Z,12228
2016-06-03T08:19:11.005Z,12612
2016-06-03T08:20:10.992Z,13260
2016-06-03T08:21:10.964Z,14176
2016-06-03T08:22:10.950Z,15072
2016-06-03T08:23:10.937Z,15612
2016-06-03T08:24:10.925Z,15568
2016-06-03T08:25:10.912Z,15472
2016-06-03T08:26:10.883Z,15832
2016-06-03T08:27:10.886Z,15940
2016-06-03T08:28:10.889Z,15240
2016-06-03T08:29:10.891Z,14716
2016-06-03T08:30:10.831Z,14856
2016-06-03T08:31:10.819Z,15956
2016-06-03T08:32:10.805Z,15112
2016-06-03T08:33:10.793Z,14228
2016-06-03T08:34:10.763Z,13776
2016-06-03T08:35:10.767Z,13972
2016-06-03T08:36:10.738Z,13324
2016-06-03T08:37:10.725Z,13360
2016-06-03T08:38:10.713Z,14224
2016-06-03T08:39:10.699Z,13904
2016-06-03T08:40:10.983Z,13524
2016-06-03T08:41:10.673Z,13376
2016-06-03T08:42:10.660Z,14136
2016-06-03T08:43:10.648Z,14348
2016-06-03T08:44:10.634Z,14400
2016-06-03T08:45:10.622Z,15288
2016-06-03T08:46:10.640Z,16172
2016-06-03T08:47:10.580Z,16272
2016-06-03T08:48:10.646Z,17332
2016-06-03T08:49:10.554Z,18496
2016-06-03T08:50:10.542Z,18560
2016-06-03T08:51:10.529Z,18016
2016-06-03T08:52:10.515Z,17424
2016-06-03T08:53:10.486Z,18976
2016-06-03T08:54:10.475Z,20544
2016-06-03T08:55:10.867Z,21760
2016-06-03T08:56:10.464Z,22016
2016-06-03T08:57:10.436Z,20160
2016-06-03T08:58:10.422Z,18912
2016-06-03T08:59:10.409Z,18208
2016-06-03T09:00:10.397Z,17684
2016-06-03T09:01:10.383Z,17312
2016-06-03T09:02:10.355Z,16708
2016-06-03T09:03:10.358Z,15820
2016-06-03T09:04:10.189Z,15148
2016-06-03T09:05:10.317Z,14756
2016-06-03T09:06:10.319Z,14676
2016-06-03T09:07:10.305Z,14780
2016-06-03T09:08:10.277Z,15060
2016-06-03T09:09:10.265Z,15880
2016-06-03T09:10:10.439Z,17056
2016-06-03T09:11:10.270Z,18752
2016-06-03T09:12:10.257Z,20608
2016-06-03T09:13:10.229Z,22816
2016-06-03T09:14:10.200Z,24992
2016-06-03T09:15:10.202Z,26400
2016-06-03T09:16:10.518Z,27008
2016-06-03T09:17:10.146Z,27104
2016-06-03T09:18:10.165Z,26496
2016-06-03T09:19:09.979Z,25248
2016-06-03T09:20:10.123Z,24064
2016-06-03T09:21:10.109Z,22976
2016-06-03T09:22:10.081Z,21888
2016-06-03T09:23:10.178Z,20800
2016-06-03T09:24:10.056Z,19616
2016-06-03T09:25:09.964Z,18656
2016-06-03T09:26:10.044Z,18752
2016-06-03T09:27:10.017Z,19744
2016-06-03T09:28:10.003Z,21824
2016-06-03T09:29:10.052Z,24608
2016-06-03T09:30:10.040Z,27168
2016-06-03T09:31:09.980Z,29216
2016-06-03T09:32:09.951Z,30848
2016-06-03T09:33:09.954Z,31968
2016-06-03T09:34:09.786Z,32864
2016-06-03T09:35:09.913Z,33760
2016-06-03T09:36:09.900Z,34144
2016-06-03T09:37:09.933Z,34336
2016-06-03T09:38:09.889Z,34688
2016-06-03T09:39:09.877Z,34880
2016-06-03T09:40:10.238Z,34880
2016-06-03T09:41:09.851Z,34944
2016-06-03T09:42:09.838Z,35424
2016-06-03T09:43:09.669Z,36288
2016-06-03T09:44:09.813Z,37824
2016-06-03T09:45:09.799Z,39744
2016-06-03T09:46:09.785Z,43968
2016-06-03T09:47:09.774Z,58656
2016-06-03T09:48:09.759Z,50816
2016-06-03T09:49:09.763Z,40032
2016-06-03T09:50:09.734Z,33056
2016-06-03T09:51:09.721Z,26432
2016-06-03T09:52:09.740Z,22336
2016-06-03T09:53:09.711Z,20864
2016-06-03T09:54:09.698Z,19296
2016-06-03T09:55:09.982Z,18016
2016-06-03T09:56:09.672Z,18048
2016-06-03T09:57:09.659Z,19072
2016-06-03T09:58:09.661Z,20512
2016-06-03T09:59:09.649Z,21984
2016-06-03T10:00:09.621Z,23136
2016-06-03T10:01:09.623Z,23872
2016-06-03T10:02:09.611Z,25248
2016-06-03T10:03:09.597Z,28640
2016-06-03T10:04:09.584Z,34784
2016-06-03T10:05:09.571Z,42496
2016-06-03T10:06:09.559Z,44288
2016-06-03T10:07:09.546Z,44832
2016-06-03T10:08:09.532Z,44448
2016-06-03T10:09:09.520Z,43136
2016-06-03T10:10:09.897Z,41824
2016-06-03T10:11:09.353Z,42048
2016-06-03T10:12:09.497Z,43392
2016-06-03T10:13:09.483Z,45472
2016-06-03T10:14:09.471Z,46400
2016-06-03T10:15:09.473Z,46848
2016-06-03T10:16:09.445Z,46784
2016-06-03T10:17:09.432Z,47072
2016-06-03T10:18:09.435Z,47552
2016-06-03T10:19:09.421Z,48192
2016-06-03T10:20:09.409Z,49216
2016-06-03T10:21:09.396Z,48480
2016-06-03T10:22:09.382Z,47520
2016-06-03T10:23:09.370Z,48256
2016-06-03T10:24:09.372Z,49120
2016-06-03T10:25:09.203Z,51136
2016-06-03T10:26:09.254Z,47072
2016-06-03T10:27:09.334Z,42304
2016-06-03T10:28:09.321Z,39776
2016-06-03T10:29:09.323Z,35904
2016-06-03T10:30:09.311Z,33984
2016-06-03T10:31:09.298Z,33824
2016-06-03T10:32:09.284Z,34976
2016-06-03T10:33:09.287Z,35872
2016-06-03T10:34:09.274Z,37344
2016-06-03T10:35:09.261Z,39808
2016-06-03T10:36:09.264Z,43744
2016-06-03T10:37:09.251Z,54880
2016-06-03T10:38:09.223Z,45856
2016-06-03T10:39:09.225Z,44960
2016-06-03T10:40:09.635Z,44864
2016-06-03T10:41:09.308Z,45568
2016-06-03T10:42:09.202Z,46368
2016-06-03T10:43:09.189Z,44704
2016-06-03T10:44:09.176Z,43872
2016-06-03T10:45:09.163Z,40352
2016-06-03T10:46:09.151Z,36800
2016-06-03T10:47:09.138Z,32768
2016-06-03T10:48:09.140Z,28128
2016-06-03T10:49:09.127Z,25248
2016-06-03T10:50:09.115Z,24640
2016-06-03T10:51:09.118Z,26432
2016-06-03T10:52:09.104Z,29824
2016-06-03T10:53:09.090Z,33344
2016-06-03T10:54:09.079Z,35904
2016-06-03T10:55:09.096Z,37408
2016-06-03T10:56:09.068Z,38016
2016-06-03T10:57:09.056Z,38240
2016-06-03T10:58:09.042Z,38752
2016-06-03T10:59:09.029Z,39584
2016-06-03T11:00:09.016Z,40704
2016-06-03T11:01:09.019Z,43584
2016-06-03T11:02:09.006Z,49280
2016-06-03T11:03:08.978Z,49856
2016-06-03T11:04:08.980Z,44672
2016-06-03T11:05:08.967Z,42496
2016-06-03T11:06:08.954Z,40544
2016-06-03T11:07:08.957Z,38624
2016-06-03T11:08:08.944Z,36896
2016-06-03T11:09:08.931Z,36704
2016-06-03T11:10:10.480Z,37568
2016-06-03T11:11:09.811Z,39168
2016-06-03T11:12:08.908Z,41088
2016-06-03T11:13:08.894Z,42176
2016-06-03T11:14:08.741Z,43072
2016-06-03T11:15:08.868Z,43232
2016-06-03T11:16:08.856Z,42464
2016-06-03T11:17:08.874Z,40544
2016-06-03T11:18:08.846Z,39360
2016-06-03T11:19:08.833Z,39040
2016-06-03T11:20:08.835Z,39232
2016-06-03T11:21:08.854Z,39776
2016-06-03T11:22:08.826Z,40064
2016-06-03T11:23:08.828Z,39424
2016-06-03T11:24:08.799Z,38144
2016-06-03T11:25:09.051Z,37280
2016-06-03T11:26:09.196Z,36544
2016-06-03T11:27:08.777Z,36640
2016-06-03T11:28:08.764Z,37440
2016-06-03T11:29:08.798Z,38560
2016-06-03T11:30:08.753Z,40832
2016-06-03T11:31:08.725Z,46880
2016-06-03T11:32:08.727Z,54496
2016-06-03T11:33:08.714Z,55968
2016-06-03T11:34:08.701Z,49504
2016-06-03T11:35:08.704Z,48064
2016-06-03T11:36:08.692Z,47744
2016-06-03T11:37:08.678Z,46304
2016-06-03T11:38:08.666Z,43680
2016-06-03T11:39:08.669Z,40448
2016-06-03T11:40:08.358Z,36896
2016-06-03T11:41:08.486Z,33632
2016-06-03T11:42:08.645Z,31968
2016-06-03T11:43:08.632Z,31168
2016-06-03T11:44:08.619Z,30176
2016-06-03T11:45:08.621Z,28992
2016-06-03T11:46:08.608Z,27520
2016-06-03T11:47:08.596Z,26176
2016-06-03T11:48:08.583Z,25184
2016-06-03T11:49:08.617Z,24224
2016-06-03T11:50:08.557Z,23360
2016-06-03T11:51:08.401Z,22624
2016-06-03T11:52:08.546Z,22080
2016-06-03T11:53:08.534Z,21952
2016-06-03T11:54:08.536Z,22272
2016-06-03T11:55:10.304Z,22464
2016-06-03T11:56:08.367Z,22304
2016-06-03T11:57:08.510Z,22048
2016-06-03T11:58:08.482Z,21792
2016-06-03T11:59:08.329Z,21568
2016-06-03T12:00:08.472Z,21568
2016-06-03T12:01:08.459Z,21920
2016-06-03T12:02:08.446Z,22624
2016-06-03T12:03:08.433Z,23488
2016-06-03T12:04:08.420Z,24416
2016-06-03T12:05:08.406Z,25408
2016-06-03T12:06:08.410Z,26848
2016-06-03T12:07:08.397Z,28672
2016-06-03T12:08:08.368Z,31328
2016-06-03T12:09:08.371Z,35808
2016-06-03T12:10:09.094Z,47360
2016-06-03T12:11:09.661Z,67808
2016-06-03T12:12:08.333Z,63392
2016-06-03T12:13:08.163Z,93344
2016-06-03T12:14:08.322Z,58144
2016-06-03T12:15:08.309Z,100512
2016-06-03T12:16:08.296Z,91680
2016-06-03T12:17:08.283Z,92544
2016-06-03T12:18:08.285Z,86720
2016-06-03T12:19:08.274Z,43328
2016-06-03T12:20:08.276Z,37376
2016-06-03T12:21:08.107Z,34816
2016-06-03T12:22:08.296Z,36128
2016-06-03T12:23:08.346Z,69440
2016-06-03T12:24:08.240Z,47008
2016-06-03T12:25:08.790Z,33664
2016-06-03T12:26:08.354Z,42912
2016-06-03T12:27:08.216Z,86112
2016-06-03T12:28:08.218Z,89728
2016-06-03T12:29:08.315Z,58528
2016-06-03T12:30:08.193Z,74592
2016-06-03T12:31:08.196Z,37760
2016-06-03T12:32:08.183Z,33664
2016-06-03T12:33:08.186Z,33984
2016-06-03T12:34:08.017Z,69536
2016-06-03T12:35:08.160Z,78304
2016-06-03T12:36:08.162Z,80288
2016-06-03T12:37:08.150Z,84576
2016-06-03T12:38:08.152Z,79392
2016-06-03T12:39:08.155Z,85120
2016-06-03T12:40:08.861Z,86624
2016-06-03T12:41:08.644Z,87776
2016-06-03T12:42:08.131Z,78944
2016-06-03T12:43:08.119Z,74240
2016-06-03T12:44:08.122Z,73856
2016-06-03T12:45:08.108Z,77856
2016-06-03T12:46:08.111Z,78816
2016-06-03T12:47:08.114Z,38272
2016-06-03T12:48:08.116Z,72224
2016-06-03T12:49:08.088Z,38944
2016-06-03T12:50:08.169Z,69344
2016-06-03T12:51:08.093Z,81248
2016-06-03T12:52:08.096Z,78624
2016-06-03T12:53:07.974Z,68608
2016-06-03T12:54:08.101Z,69024
2016-06-03T12:55:08.370Z,73792
2016-06-03T12:56:08.106Z,81056
2016-06-03T12:57:08.078Z,63648
2016-06-03T12:58:08.081Z,31296
2016-06-03T12:59:07.927Z,60864
2016-06-03T13:00:08.055Z,45248
2016-06-03T13:01:08.058Z,39872
2016-06-03T13:02:08.060Z,47552
2016-06-03T13:03:08.047Z,59264
2016-06-03T13:04:08.065Z,36224
2016-06-03T13:05:08.053Z,35968
2016-06-03T13:06:08.040Z,78752
2016-06-03T13:07:08.043Z,86240
2016-06-03T13:08:08.031Z,84832
2016-06-03T13:09:08.033Z,77184
2016-06-03T13:10:09.206Z,84416
2016-06-03T13:11:08.054Z,44640
2016-06-03T13:12:08.009Z,44064
2016-06-03T13:13:08.011Z,37952
2016-06-03T13:14:08.014Z,40096
2016-06-03T13:15:08.002Z,29760
2016-06-03T13:16:08.005Z,28416
2016-06-03T13:17:08.007Z,32192
2016-06-03T13:18:08.010Z,41376
2016-06-03T13:19:07.981Z,81280
2016-06-03T13:20:07.983Z,46784
2016-06-03T13:21:07.986Z,90976
2016-06-03T13:22:07.974Z,93024
2016-06-03T13:23:07.977Z,89920
2016-06-03T13:24:07.838Z,88448
2016-06-03T13:25:08.294Z,87232
2016-06-03T13:26:08.593Z,92608